sensor_id;sensor_type;location;lat;lon;timestamp;P1;durP1;ratioP1;P2;durP2;ratioP2
45905;SDS011;31619;49.008;12.106;2023-04-19T00:01:34;9.63;;;8.77;;
45905;SDS011;31619;49.008;12.106;2023-04-19T00:04:00;10.30;;;9.23;;
45905;SDS011;31619;49.008;12.106;2023-04-19T00:06:26;11.00;;;9.93;;
45905;SDS011;31619;49.008;12.106;2023-04-19T00:08:54;11.95;;;10.00;;
45905;SDS011;31619;49.008;12.106;2023-04-19T00:11:20;11.05;;;9.95;;
45905;SDS011;31619;49.008;12.106;2023-04-19T00:13:45;10.82;;;9.73;;
45905;SDS011;31619;49.008;12.106;2023-04-19T00:16:13;12.45;;;11.25;;
45905;SDS011;31619;49.008;12.106;2023-04-19T00:18:38;12.40;;;11.10;;
45905;SDS011;31619;49.008;12.106;2023-04-19T00:21:04;12.18;;;10.98;;
45905;SDS011;31619;49.008;12.106;2023-04-19T00:23:30;14.15;;;11.32;;
45905;SDS011;31619;49.008;12.106;2023-04-19T00:25:56;12.00;;;10.50;;
45905;SDS011;31619;49.008;12.106;2023-04-19T00:28:22;12.80;;;11.07;;
45905;SDS011;31619;49.008;12.106;2023-04-19T00:30:48;14.05;;;11.18;;
45905;SDS011;31619;49.008;12.106;2023-04-19T00:33:14;11.98;;;10.75;;
45905;SDS011;31619;49.008;12.106;2023-04-19T00:35:40;10.85;;;9.75;;
45905;SDS011;31619;49.008;12.106;2023-04-19T00:38:06;12.57;;;10.75;;
45905;SDS011;31619;49.008;12.106;2023-04-19T00:40:32;13.77;;;10.65;;
45905;SDS011;31619;49.008;12.106;2023-04-19T00:42:57;12.02;;;10.77;;
45905;SDS011;31619;49.008;12.106;2023-04-19T00:45:23;11.93;;;10.45;;
45905;SDS011;31619;49.008;12.106;2023-04-19T00:47:49;13.27;;;10.93;;
45905;SDS011;31619;49.008;12.106;2023-04-19T00:50:16;12.77;;;11.43;;
45905;SDS011;31619;49.008;12.106;2023-04-19T00:52:41;14.07;;;12.45;;
45905;SDS011;31619;49.008;12.106;2023-04-19T00:55:08;12.85;;;11.55;;
45905;SDS011;31619;49.008;12.106;2023-04-19T00:57:34;12.98;;;11.68;;
45905;SDS011;31619;49.008;12.106;2023-04-19T01:00:01;12.25;;;10.98;;
45905;SDS011;31619;49.008;12.106;2023-04-19T01:02:30;12.05;;;10.75;;
45905;SDS011;31619;49.008;12.106;2023-04-19T01:04:55;14.55;;;11.35;;
45905;SDS011;31619;49.008;12.106;2023-04-19T01:07:21;12.15;;;10.77;;
45905;SDS011;31619;49.008;12.106;2023-04-19T01:09:47;12.40;;;11.05;;
45905;SDS011;31619;49.008;12.106;2023-04-19T01:12:13;12.48;;;11.18;;
45905;SDS011;31619;49.008;12.106;2023-04-19T01:14:38;12.60;;;11.20;;
45905;SDS011;31619;49.008;12.106;2023-04-19T01:17:05;13.70;;;11.43;;
45905;SDS011;31619;49.008;12.106;2023-04-19T01:19:31;15.88;;;12.40;;
45905;SDS011;31619;49.008;12.106;2023-04-19T01:21:58;13.35;;;11.95;;
45905;SDS011;31619;49.008;12.106;2023-04-19T01:24:24;16.95;;;12.48;;
45905;SDS011;31619;49.008;12.106;2023-04-19T01:26:50;13.25;;;11.85;;
45905;SDS011;31619;49.008;12.106;2023-04-19T01:29:15;13.77;;;11.95;;
45905;SDS011;31619;49.008;12.106;2023-04-19T01:31:42;14.43;;;12.50;;
45905;SDS011;31619;49.008;12.106;2023-04-19T01:34:13;13.18;;;10.98;;
45905;SDS011;31619;49.008;12.106;2023-04-19T01:36:38;14.27;;;12.63;;
45905;SDS011;31619;49.008;12.106;2023-04-19T01:39:04;14.20;;;12.48;;
45905;SDS011;31619;49.008;12.106;2023-04-19T01:41:30;15.23;;;12.27;;
45905;SDS011;31619;49.008;12.106;2023-04-19T01:43:56;15.50;;;12.63;;
45905;SDS011;31619;49.008;12.106;2023-04-19T01:46:21;17.77;;;12.75;;
45905;SDS011;31619;49.008;12.106;2023-04-19T01:48:47;13.25;;;11.55;;
45905;SDS011;31619;49.008;12.106;2023-04-19T01:51:13;14.50;;;12.38;;
45905;SDS011;31619;49.008;12.106;2023-04-19T01:53:38;17.60;;;13.77;;
45905;SDS011;31619;49.008;12.106;2023-04-19T01:56:04;17.88;;;14.32;;
45905;SDS011;31619;49.008;12.106;2023-04-19T01:58:30;20.30;;;15.27;;
45905;SDS011;31619;49.008;12.106;2023-04-19T02:00:55;20.05;;;14.30;;
45905;SDS011;31619;49.008;12.106;2023-04-19T02:03:21;18.50;;;14.65;;
45905;SDS011;31619;49.008;12.106;2023-04-19T02:05:46;19.45;;;15.02;;
45905;SDS011;31619;49.008;12.106;2023-04-19T02:08:12;18.45;;;15.25;;
45905;SDS011;31619;49.008;12.106;2023-04-19T02:10:37;19.27;;;15.25;;
45905;SDS011;31619;49.008;12.106;2023-04-19T02:13:03;21.80;;;15.65;;
45905;SDS011;31619;49.008;12.106;2023-04-19T02:15:28;18.42;;;14.40;;
45905;SDS011;31619;49.008;12.106;2023-04-19T02:17:54;20.40;;;16.85;;
45905;SDS011;31619;49.008;12.106;2023-04-19T02:20:20;19.15;;;15.65;;
45905;SDS011;31619;49.008;12.106;2023-04-19T02:22:45;18.77;;;14.80;;
45905;SDS011;31619;49.008;12.106;2023-04-19T02:25:11;18.38;;;14.90;;
45905;SDS011;31619;49.008;12.106;2023-04-19T02:27:37;17.50;;;15.00;;
45905;SDS011;31619;49.008;12.106;2023-04-19T02:30:03;17.38;;;14.98;;
45905;SDS011;31619;49.008;12.106;2023-04-19T02:32:29;20.23;;;15.75;;
45905;SDS011;31619;49.008;12.106;2023-04-19T02:34:54;21.33;;;15.90;;
45905;SDS011;31619;49.008;12.106;2023-04-19T02:37:20;19.48;;;15.20;;
45905;SDS011;31619;49.008;12.106;2023-04-19T02:39:45;17.48;;;14.98;;
45905;SDS011;31619;49.008;12.106;2023-04-19T02:42:11;20.08;;;16.00;;
45905;SDS011;31619;49.008;12.106;2023-04-19T02:44:37;19.38;;;15.30;;
45905;SDS011;31619;49.008;12.106;2023-04-19T02:47:02;17.30;;;14.57;;
45905;SDS011;31619;49.008;12.106;2023-04-19T02:49:29;20.60;;;16.40;;
45905;SDS011;31619;49.008;12.106;2023-04-19T02:51:58;18.25;;;14.85;;
45905;SDS011;31619;49.008;12.106;2023-04-19T02:54:24;16.30;;;14.60;;
45905;SDS011;31619;49.008;12.106;2023-04-19T02:56:49;18.75;;;15.00;;
45905;SDS011;31619;49.008;12.106;2023-04-19T02:59:15;17.10;;;14.93;;
45905;SDS011;31619;49.008;12.106;2023-04-19T03:01:40;20.40;;;15.68;;
45905;SDS011;31619;49.008;12.106;2023-04-19T03:04:06;19.52;;;15.18;;
45905;SDS011;31619;49.008;12.106;2023-04-19T03:06:31;21.90;;;16.42;;
45905;SDS011;31619;49.008;12.106;2023-04-19T03:08:57;20.42;;;16.15;;
45905;SDS011;31619;49.008;12.106;2023-04-19T03:11:22;21.65;;;16.88;;
45905;SDS011;31619;49.008;12.106;2023-04-19T03:13:48;20.88;;;15.23;;
45905;SDS011;31619;49.008;12.106;2023-04-19T03:16:14;21.77;;;16.55;;
45905;SDS011;31619;49.008;12.106;2023-04-19T03:18:40;19.92;;;15.63;;
45905;SDS011;31619;49.008;12.106;2023-04-19T03:21:05;22.65;;;17.00;;
45905;SDS011;31619;49.008;12.106;2023-04-19T03:23:33;22.48;;;16.67;;
45905;SDS011;31619;49.008;12.106;2023-04-19T03:25:59;21.27;;;17.33;;
45905;SDS011;31619;49.008;12.106;2023-04-19T03:28:25;21.92;;;16.55;;
45905;SDS011;31619;49.008;12.106;2023-04-19T03:30:51;20.27;;;16.95;;
45905;SDS011;31619;49.008;12.106;2023-04-19T03:33:17;21.00;;;16.92;;
45905;SDS011;31619;49.008;12.106;2023-04-19T03:35:42;21.17;;;17.52;;
45905;SDS011;31619;49.008;12.106;2023-04-19T03:38:08;22.55;;;15.75;;
45905;SDS011;31619;49.008;12.106;2023-04-19T03:40:35;22.95;;;15.88;;
45905;SDS011;31619;49.008;12.106;2023-04-19T03:43:02;20.15;;;15.27;;
45905;SDS011;31619;49.008;12.106;2023-04-19T03:45:27;19.67;;;16.58;;
45905;SDS011;31619;49.008;12.106;2023-04-19T03:47:53;19.75;;;16.60;;
45905;SDS011;31619;49.008;12.106;2023-04-19T03:50:19;20.27;;;16.42;;
45905;SDS011;31619;49.008;12.106;2023-04-19T03:52:44;19.30;;;16.20;;
45905;SDS011;31619;49.008;12.106;2023-04-19T03:55:10;20.25;;;16.52;;
45905;SDS011;31619;49.008;12.106;2023-04-19T03:57:39;22.42;;;17.25;;
45905;SDS011;31619;49.008;12.106;2023-04-19T04:00:05;21.55;;;17.38;;
45905;SDS011;31619;49.008;12.106;2023-04-19T04:02:36;23.70;;;17.63;;
45905;SDS011;31619;49.008;12.106;2023-04-19T04:05:03;20.55;;;16.83;;
45905;SDS011;31619;49.008;12.106;2023-04-19T04:07:30;21.05;;;17.00;;
45905;SDS011;31619;49.008;12.106;2023-04-19T04:09:55;19.27;;;15.88;;
45905;SDS011;31619;49.008;12.106;2023-04-19T04:12:21;17.92;;;15.50;;
45905;SDS011;31619;49.008;12.106;2023-04-19T04:14:46;17.85;;;15.20;;
45905;SDS011;31619;49.008;12.106;2023-04-19T04:17:12;21.73;;;16.13;;
45905;SDS011;31619;49.008;12.106;2023-04-19T04:19:37;21.73;;;16.50;;
45905;SDS011;31619;49.008;12.106;2023-04-19T04:22:03;18.95;;;15.25;;
45905;SDS011;31619;49.008;12.106;2023-04-19T04:24:30;20.15;;;16.23;;
45905;SDS011;31619;49.008;12.106;2023-04-19T04:26:57;19.33;;;15.32;;
45905;SDS011;31619;49.008;12.106;2023-04-19T04:29:24;19.05;;;15.63;;
45905;SDS011;31619;49.008;12.106;2023-04-19T04:31:50;21.42;;;15.23;;
45905;SDS011;31619;49.008;12.106;2023-04-19T04:34:16;18.10;;;15.23;;
45905;SDS011;31619;49.008;12.106;2023-04-19T04:36:41;20.00;;;15.43;;
45905;SDS011;31619;49.008;12.106;2023-04-19T04:39:07;18.88;;;15.73;;
45905;SDS011;31619;49.008;12.106;2023-04-19T04:41:35;21.52;;;17.90;;
45905;SDS011;31619;49.008;12.106;2023-04-19T04:44:01;18.95;;;16.05;;
45905;SDS011;31619;49.008;12.106;2023-04-19T04:46:28;20.35;;;16.85;;
45905;SDS011;31619;49.008;12.106;2023-04-19T04:48:54;23.13;;;17.80;;
45905;SDS011;31619;49.008;12.106;2023-04-19T04:51:19;22.23;;;16.42;;
45905;SDS011;31619;49.008;12.106;2023-04-19T04:53:45;20.70;;;16.88;;
45905;SDS011;31619;49.008;12.106;2023-04-19T04:56:11;22.70;;;17.48;;
45905;SDS011;31619;49.008;12.106;2023-04-19T04:58:36;24.33;;;18.30;;
45905;SDS011;31619;49.008;12.106;2023-04-19T05:01:02;21.67;;;17.58;;
45905;SDS011;31619;49.008;12.106;2023-04-19T05:03:28;22.45;;;17.83;;
45905;SDS011;31619;49.008;12.106;2023-04-19T05:05:53;21.25;;;16.80;;
45905;SDS011;31619;49.008;12.106;2023-04-19T05:08:20;21.75;;;16.88;;
45905;SDS011;31619;49.008;12.106;2023-04-19T05:10:45;20.33;;;15.35;;
45905;SDS011;31619;49.008;12.106;2023-04-19T05:13:11;23.38;;;17.02;;
45905;SDS011;31619;49.008;12.106;2023-04-19T05:15:37;19.75;;;17.13;;
45905;SDS011;31619;49.008;12.106;2023-04-19T05:18:02;19.10;;;16.35;;
45905;SDS011;31619;49.008;12.106;2023-04-19T05:20:28;23.02;;;17.23;;
45905;SDS011;31619;49.008;12.106;2023-04-19T05:22:57;19.10;;;15.40;;
45905;SDS011;31619;49.008;12.106;2023-04-19T05:25:27;20.27;;;17.17;;
45905;SDS011;31619;49.008;12.106;2023-04-19T05:27:53;24.35;;;17.80;;
45905;SDS011;31619;49.008;12.106;2023-04-19T05:30:20;22.77;;;17.25;;
45905;SDS011;31619;49.008;12.106;2023-04-19T05:32:45;21.63;;;17.25;;
45905;SDS011;31619;49.008;12.106;2023-04-19T05:35:11;20.13;;;17.05;;
45905;SDS011;31619;49.008;12.106;2023-04-19T05:37:37;18.77;;;16.88;;
45905;SDS011;31619;49.008;12.106;2023-04-19T05:40:03;19.75;;;16.35;;
45905;SDS011;31619;49.008;12.106;2023-04-19T05:42:29;20.02;;;16.48;;
45905;SDS011;31619;49.008;12.106;2023-04-19T05:44:55;18.08;;;15.68;;
45905;SDS011;31619;49.008;12.106;2023-04-19T05:47:21;18.02;;;15.52;;
45905;SDS011;31619;49.008;12.106;2023-04-19T05:49:46;17.35;;;14.65;;
45905;SDS011;31619;49.008;12.106;2023-04-19T05:52:12;18.40;;;14.90;;
45905;SDS011;31619;49.008;12.106;2023-04-19T05:54:37;17.33;;;15.23;;
45905;SDS011;31619;49.008;12.106;2023-04-19T05:57:03;16.45;;;14.77;;
45905;SDS011;31619;49.008;12.106;2023-04-19T05:59:29;16.23;;;14.38;;
45905;SDS011;31619;49.008;12.106;2023-04-19T06:01:54;17.70;;;15.52;;
45905;SDS011;31619;49.008;12.106;2023-04-19T06:04:20;17.05;;;14.13;;
45905;SDS011;31619;49.008;12.106;2023-04-19T06:06:46;17.27;;;14.32;;
45905;SDS011;31619;49.008;12.106;2023-04-19T06:09:12;16.48;;;14.63;;
45905;SDS011;31619;49.008;12.106;2023-04-19T06:11:42;15.55;;;13.63;;
45905;SDS011;31619;49.008;12.106;2023-04-19T06:14:07;18.80;;;14.38;;
45905;SDS011;31619;49.008;12.106;2023-04-19T06:16:34;19.00;;;14.30;;
45905;SDS011;31619;49.008;12.106;2023-04-19T06:19:00;15.95;;;14.35;;
45905;SDS011;31619;49.008;12.106;2023-04-19T06:21:25;14.15;;;12.75;;
45905;SDS011;31619;49.008;12.106;2023-04-19T06:23:53;14.05;;;12.52;;
45905;SDS011;31619;49.008;12.106;2023-04-19T06:26:19;15.57;;;13.43;;
45905;SDS011;31619;49.008;12.106;2023-04-19T06:28:45;13.43;;;11.65;;
45905;SDS011;31619;49.008;12.106;2023-04-19T06:31:11;13.90;;;12.50;;
45905;SDS011;31619;49.008;12.106;2023-04-19T06:33:36;13.80;;;12.25;;
45905;SDS011;31619;49.008;12.106;2023-04-19T06:36:02;13.65;;;11.95;;
45905;SDS011;31619;49.008;12.106;2023-04-19T06:38:28;13.40;;;11.82;;
45905;SDS011;31619;49.008;12.106;2023-04-19T06:40:54;13.10;;;11.70;;
45905;SDS011;31619;49.008;12.106;2023-04-19T06:43:19;16.73;;;12.57;;
45905;SDS011;31619;49.008;12.106;2023-04-19T06:45:45;13.15;;;11.75;;
45905;SDS011;31619;49.008;12.106;2023-04-19T06:48:11;13.93;;;11.85;;
45905;SDS011;31619;49.008;12.106;2023-04-19T06:50:37;12.90;;;11.60;;
45905;SDS011;31619;49.008;12.106;2023-04-19T06:53:02;14.43;;;11.82;;
45905;SDS011;31619;49.008;12.106;2023-04-19T06:55:28;12.93;;;11.20;;
45905;SDS011;31619;49.008;12.106;2023-04-19T06:57:54;13.00;;;11.63;;
45905;SDS011;31619;49.008;12.106;2023-04-19T07:00:20;15.52;;;11.43;;
45905;SDS011;31619;49.008;12.106;2023-04-19T07:02:47;14.20;;;12.70;;
45905;SDS011;31619;49.008;12.106;2023-04-19T07:05:14;12.95;;;11.65;;
45905;SDS011;31619;49.008;12.106;2023-04-19T07:07:39;13.38;;;11.98;;
45905;SDS011;31619;49.008;12.106;2023-04-19T07:10:06;14.75;;;13.32;;
45905;SDS011;31619;49.008;12.106;2023-04-19T07:12:32;14.07;;;12.60;;
45905;SDS011;31619;49.008;12.106;2023-04-19T07:14:58;14.82;;;13.23;;
45905;SDS011;31619;49.008;12.106;2023-04-19T07:17:24;14.52;;;12.80;;
45905;SDS011;31619;49.008;12.106;2023-04-19T07:19:49;17.38;;;13.50;;
45905;SDS011;31619;49.008;12.106;2023-04-19T07:22:15;15.15;;;13.50;;
45905;SDS011;31619;49.008;12.106;2023-04-19T07:24:40;17.42;;;13.70;;
45905;SDS011;31619;49.008;12.106;2023-04-19T07:27:08;15.30;;;13.65;;
45905;SDS011;31619;49.008;12.106;2023-04-19T07:29:34;15.43;;;13.50;;
45905;SDS011;31619;49.008;12.106;2023-04-19T07:32:00;17.00;;;15.13;;
45905;SDS011;31619;49.008;12.106;2023-04-19T07:34:26;19.35;;;13.85;;
45905;SDS011;31619;49.008;12.106;2023-04-19T07:36:52;15.98;;;14.38;;
45905;SDS011;31619;49.008;12.106;2023-04-19T07:39:17;15.50;;;13.23;;
45905;SDS011;31619;49.008;12.106;2023-04-19T07:41:43;17.83;;;14.88;;
45905;SDS011;31619;49.008;12.106;2023-04-19T07:44:10;20.27;;;15.57;;
45905;SDS011;31619;49.008;12.106;2023-04-19T07:46:37;16.77;;;13.73;;
45905;SDS011;31619;49.008;12.106;2023-04-19T07:49:02;16.10;;;14.32;;
45905;SDS011;31619;49.008;12.106;2023-04-19T07:51:28;16.85;;;14.30;;
45905;SDS011;31619;49.008;12.106;2023-04-19T07:53:53;16.92;;;15.10;;
45905;SDS011;31619;49.008;12.106;2023-04-19T07:56:20;16.92;;;14.57;;
45905;SDS011;31619;49.008;12.106;2023-04-19T07:58:47;16.90;;;13.63;;
45905;SDS011;31619;49.008;12.106;2023-04-19T08:01:12;17.00;;;14.52;;
45905;SDS011;31619;49.008;12.106;2023-04-19T08:03:38;15.23;;;13.75;;
45905;SDS011;31619;49.008;12.106;2023-04-19T08:06:04;15.77;;;14.07;;
45905;SDS011;31619;49.008;12.106;2023-04-19T08:08:32;16.13;;;14.07;;
45905;SDS011;31619;49.008;12.106;2023-04-19T08:10:58;14.93;;;13.43;;
45905;SDS011;31619;49.008;12.106;2023-04-19T08:13:24;18.35;;;14.32;;
45905;SDS011;31619;49.008;12.106;2023-04-19T08:15:50;17.40;;;14.52;;
45905;SDS011;31619;49.008;12.106;2023-04-19T08:18:16;16.50;;;14.65;;
45905;SDS011;31619;49.008;12.106;2023-04-19T08:20:41;16.30;;;14.02;;
45905;SDS011;31619;49.008;12.106;2023-04-19T08:23:07;16.05;;;13.93;;
45905;SDS011;31619;49.008;12.106;2023-04-19T08:25:33;18.98;;;15.50;;
45905;SDS011;31619;49.008;12.106;2023-04-19T08:28:00;16.52;;;14.73;;
45905;SDS011;31619;49.008;12.106;2023-04-19T08:30:25;15.50;;;13.65;;
45905;SDS011;31619;49.008;12.106;2023-04-19T08:32:51;16.63;;;14.18;;
45905;SDS011;31619;49.008;12.106;2023-04-19T08:35:17;14.35;;;12.77;;
45905;SDS011;31619;49.008;12.106;2023-04-19T08:37:42;14.90;;;13.05;;
45905;SDS011;31619;49.008;12.106;2023-04-19T08:40:08;17.38;;;13.32;;
45905;SDS011;31619;49.008;12.106;2023-04-19T08:42:35;15.77;;;13.25;;
45905;SDS011;31619;49.008;12.106;2023-04-19T08:45:01;15.93;;;13.95;;
45905;SDS011;31619;49.008;12.106;2023-04-19T08:47:32;14.57;;;12.98;;
45905;SDS011;31619;49.008;12.106;2023-04-19T08:50:02;15.10;;;13.40;;
45905;SDS011;31619;49.008;12.106;2023-04-19T08:52:29;15.85;;;14.27;;
45905;SDS011;31619;49.008;12.106;2023-04-19T08:55:00;15.18;;;13.45;;
45905;SDS011;31619;49.008;12.106;2023-04-19T08:57:30;14.32;;;12.75;;
45905;SDS011;31619;49.008;12.106;2023-04-19T08:59:56;14.77;;;13.27;;
45905;SDS011;31619;49.008;12.106;2023-04-19T09:02:25;14.65;;;13.15;;
45905;SDS011;31619;49.008;12.106;2023-04-19T09:04:51;14.98;;;13.48;;
45905;SDS011;31619;49.008;12.106;2023-04-19T09:07:23;15.60;;;13.20;;
45905;SDS011;31619;49.008;12.106;2023-04-19T09:10:12;15.45;;;13.75;;
45905;SDS011;31619;49.008;12.106;2023-04-19T09:12:37;15.07;;;12.85;;
45905;SDS011;31619;49.008;12.106;2023-04-19T09:15:04;13.68;;;12.20;;
45905;SDS011;31619;49.008;12.106;2023-04-19T09:17:33;14.25;;;12.82;;
45905;SDS011;31619;49.008;12.106;2023-04-19T09:19:59;13.98;;;12.60;;
45905;SDS011;31619;49.008;12.106;2023-04-19T09:22:25;15.45;;;13.80;;
45905;SDS011;31619;49.008;12.106;2023-04-19T09:24:50;15.93;;;13.80;;
45905;SDS011;31619;49.008;12.106;2023-04-19T09:27:27;15.10;;;12.98;;
45905;SDS011;31619;49.008;12.106;2023-04-19T09:29:57;14.45;;;12.23;;
45905;SDS011;31619;49.008;12.106;2023-04-19T09:32:24;17.80;;;13.50;;
45905;SDS011;31619;49.008;12.106;2023-04-19T09:34:52;14.38;;;12.98;;
45905;SDS011;31619;49.008;12.106;2023-04-19T09:37:22;13.85;;;12.43;;
45905;SDS011;31619;49.008;12.106;2023-04-19T09:39:48;14.57;;;13.07;;
45905;SDS011;31619;49.008;12.106;2023-04-19T09:42:14;14.88;;;13.25;;
45905;SDS011;31619;49.008;12.106;2023-04-19T09:44:53;15.98;;;12.73;;
45905;SDS011;31619;49.008;12.106;2023-04-19T09:47:23;13.43;;;12.10;;
45905;SDS011;31619;49.008;12.106;2023-04-19T09:50:08;13.30;;;11.90;;
45905;SDS011;31619;49.008;12.106;2023-04-19T09:52:35;12.65;;;11.45;;
45905;SDS011;31619;49.008;12.106;2023-04-19T09:55:02;11.43;;;10.25;;
45905;SDS011;31619;49.008;12.106;2023-04-19T09:57:30;12.57;;;11.15;;
45905;SDS011;31619;49.008;12.106;2023-04-19T09:59:59;11.77;;;10.32;;
45905;SDS011;31619;49.008;12.106;2023-04-19T10:02:29;11.82;;;10.60;;
45905;SDS011;31619;49.008;12.106;2023-04-19T10:04:57;11.25;;;10.02;;
45905;SDS011;31619;49.008;12.106;2023-04-19T10:07:24;12.50;;;11.30;;
45905;SDS011;31619;49.008;12.106;2023-04-19T10:09:50;14.05;;;12.60;;
45905;SDS011;31619;49.008;12.106;2023-04-19T10:12:22;13.70;;;12.05;;
45905;SDS011;31619;49.008;12.106;2023-04-19T10:14:50;14.90;;;12.45;;
45905;SDS011;31619;49.008;12.106;2023-04-19T10:17:16;15.13;;;13.07;;
45905;SDS011;31619;49.008;12.106;2023-04-19T10:19:42;13.52;;;12.10;;
45905;SDS011;31619;49.008;12.106;2023-04-19T10:22:10;15.85;;;14.10;;
45905;SDS011;31619;49.008;12.106;2023-04-19T10:24:37;15.45;;;13.25;;
45905;SDS011;31619;49.008;12.106;2023-04-19T10:27:12;13.73;;;12.43;;
45905;SDS011;31619;49.008;12.106;2023-04-19T10:32:16;13.77;;;12.30;;
45905;SDS011;31619;49.008;12.106;2023-04-19T10:34:41;12.82;;;11.52;;
45905;SDS011;31619;49.008;12.106;2023-04-19T10:37:09;13.40;;;12.02;;
45905;SDS011;31619;49.008;12.106;2023-04-19T10:39:44;14.13;;;12.70;;
45905;SDS011;31619;49.008;12.106;2023-04-19T10:42:09;15.90;;;13.85;;
45905;SDS011;31619;49.008;12.106;2023-04-19T10:44:37;14.75;;;13.25;;
45905;SDS011;31619;49.008;12.106;2023-04-19T10:47:04;18.42;;;14.70;;
45905;SDS011;31619;49.008;12.106;2023-04-19T10:49:29;16.60;;;13.95;;
45905;SDS011;31619;49.008;12.106;2023-04-19T10:51:55;14.80;;;13.20;;
45905;SDS011;31619;49.008;12.106;2023-04-19T10:54:28;15.45;;;13.48;;
45905;SDS011;31619;49.008;12.106;2023-04-19T10:56:56;15.15;;;13.45;;
45905;SDS011;31619;49.008;12.106;2023-04-19T10:59:24;15.27;;;13.77;;
45905;SDS011;31619;49.008;12.106;2023-04-19T11:07:04;12.52;;;11.23;;
45905;SDS011;31619;49.008;12.106;2023-04-19T11:12:06;13.80;;;11.88;;
45905;SDS011;31619;49.008;12.106;2023-04-19T11:14:43;12.35;;;11.05;;
45905;SDS011;31619;49.008;12.106;2023-04-19T11:17:13;12.63;;;11.32;;
45905;SDS011;31619;49.008;12.106;2023-04-19T11:24:55;11.90;;;10.70;;
45905;SDS011;31619;49.008;12.106;2023-04-19T11:27:21;12.13;;;11.02;;
45905;SDS011;31619;49.008;12.106;2023-04-19T11:29:47;12.07;;;10.43;;
45905;SDS011;31619;49.008;12.106;2023-04-19T11:32:12;13.32;;;11.13;;
45905;SDS011;31619;49.008;12.106;2023-04-19T11:34:39;12.88;;;11.55;;
45905;SDS011;31619;49.008;12.106;2023-04-19T11:37:04;12.25;;;10.52;;
45905;SDS011;31619;49.008;12.106;2023-04-19T11:39:30;11.65;;;10.45;;
45905;SDS011;31619;49.008;12.106;2023-04-19T11:41:56;11.57;;;10.45;;
45905;SDS011;31619;49.008;12.106;2023-04-19T11:44:22;13.18;;;11.77;;
45905;SDS011;31619;49.008;12.106;2023-04-19T11:47:00;12.45;;;11.15;;
45905;SDS011;31619;49.008;12.106;2023-04-19T11:49:32;11.68;;;10.50;;
45905;SDS011;31619;49.008;12.106;2023-04-19T11:51:58;11.32;;;10.20;;
45905;SDS011;31619;49.008;12.106;2023-04-19T11:54:25;11.10;;;9.90;;
45905;SDS011;31619;49.008;12.106;2023-04-19T11:57:02;12.13;;;10.15;;
45905;SDS011;31619;49.008;12.106;2023-04-19T11:59:29;11.95;;;10.02;;
45905;SDS011;31619;49.008;12.106;2023-04-19T12:02:03;11.10;;;9.27;;
45905;SDS011;31619;49.008;12.106;2023-04-19T12:04:30;9.77;;;8.88;;
45905;SDS011;31619;49.008;12.106;2023-04-19T12:06:56;9.38;;;8.35;;
45905;SDS011;31619;49.008;12.106;2023-04-19T12:09:23;10.82;;;9.73;;
45905;SDS011;31619;49.008;12.106;2023-04-19T12:11:49;9.80;;;8.77;;
45905;SDS011;31619;49.008;12.106;2023-04-19T12:14:15;10.95;;;8.40;;
45905;SDS011;31619;49.008;12.106;2023-04-19T12:16:43;10.20;;;9.25;;
45905;SDS011;31619;49.008;12.106;2023-04-19T12:19:10;9.10;;;8.07;;
45905;SDS011;31619;49.008;12.106;2023-04-19T12:21:39;9.02;;;8.23;;
45905;SDS011;31619;49.008;12.106;2023-04-19T12:24:05;8.43;;;7.72;;
45905;SDS011;31619;49.008;12.106;2023-04-19T12:26:32;8.15;;;7.50;;
45905;SDS011;31619;49.008;12.106;2023-04-19T12:28:58;8.02;;;7.32;;
45905;SDS011;31619;49.008;12.106;2023-04-19T12:31:24;7.95;;;7.25;;
45905;SDS011;31619;49.008;12.106;2023-04-19T12:33:51;8.10;;;7.30;;
45905;SDS011;31619;49.008;12.106;2023-04-19T12:36:17;8.88;;;7.57;;
45905;SDS011;31619;49.008;12.106;2023-04-19T12:38:43;7.65;;;7.00;;
45905;SDS011;31619;49.008;12.106;2023-04-19T12:41:09;7.97;;;7.15;;
45905;SDS011;31619;49.008;12.106;2023-04-19T12:43:35;6.97;;;6.38;;
45905;SDS011;31619;49.008;12.106;2023-04-19T12:46:01;7.53;;;6.82;;
45905;SDS011;31619;49.008;12.106;2023-04-19T12:48:26;7.30;;;6.60;;
45905;SDS011;31619;49.008;12.106;2023-04-19T12:50:52;7.57;;;6.88;;
45905;SDS011;31619;49.008;12.106;2023-04-19T12:53:18;8.07;;;7.28;;
45905;SDS011;31619;49.008;12.106;2023-04-19T12:55:45;7.78;;;7.07;;
45905;SDS011;31619;49.008;12.106;2023-04-19T12:58:12;8.07;;;7.28;;
45905;SDS011;31619;49.008;12.106;2023-04-19T13:00:38;8.68;;;7.88;;
45905;SDS011;31619;49.008;12.106;2023-04-19T13:03:04;8.32;;;7.30;;
45905;SDS011;31619;49.008;12.106;2023-04-19T13:05:29;6.97;;;6.35;;
45905;SDS011;31619;49.008;12.106;2023-04-19T13:07:55;8.85;;;8.07;;
45905;SDS011;31619;49.008;12.106;2023-04-19T13:10:21;7.55;;;6.85;;
45905;SDS011;31619;49.008;12.106;2023-04-19T13:12:46;10.70;;;7.93;;
45905;SDS011;31619;49.008;12.106;2023-04-19T13:15:12;8.07;;;7.35;;
45905;SDS011;31619;49.008;12.106;2023-04-19T13:17:37;8.98;;;7.72;;
45905;SDS011;31619;49.008;12.106;2023-04-19T13:20:03;8.13;;;7.32;;
45905;SDS011;31619;49.008;12.106;2023-04-19T13:22:30;7.90;;;7.13;;
45905;SDS011;31619;49.008;12.106;2023-04-19T13:24:56;8.50;;;7.75;;
45905;SDS011;31619;49.008;12.106;2023-04-19T13:27:22;8.57;;;7.78;;
45905;SDS011;31619;49.008;12.106;2023-04-19T13:29:47;7.07;;;6.45;;
45905;SDS011;31619;49.008;12.106;2023-04-19T13:32:13;7.75;;;6.13;;
45905;SDS011;31619;49.008;12.106;2023-04-19T13:34:39;7.45;;;6.80;;
45905;SDS011;31619;49.008;12.106;2023-04-19T13:37:05;10.10;;;6.93;;
45905;SDS011;31619;49.008;12.106;2023-04-19T13:39:31;6.75;;;6.05;;
45905;SDS011;31619;49.008;12.106;2023-04-19T13:41:57;6.82;;;6.22;;
45905;SDS011;31619;49.008;12.106;2023-04-19T13:44:23;6.78;;;6.18;;
45905;SDS011;31619;49.008;12.106;2023-04-19T13:46:49;6.18;;;5.68;;
45905;SDS011;31619;49.008;12.106;2023-04-19T13:49:16;6.38;;;5.80;;
45905;SDS011;31619;49.008;12.106;2023-04-19T13:51:42;6.20;;;5.70;;
45905;SDS011;31619;49.008;12.106;2023-04-19T13:54:07;6.53;;;5.93;;
45905;SDS011;31619;49.008;12.106;2023-04-19T13:56:33;6.45;;;5.95;;
45905;SDS011;31619;49.008;12.106;2023-04-19T13:58:59;6.95;;;6.35;;
45905;SDS011;31619;49.008;12.106;2023-04-19T14:01:24;5.60;;;5.20;;
45905;SDS011;31619;49.008;12.106;2023-04-19T14:03:50;6.07;;;5.53;;
45905;SDS011;31619;49.008;12.106;2023-04-19T14:06:16;5.88;;;5.28;;
45905;SDS011;31619;49.008;12.106;2023-04-19T14:08:41;5.90;;;5.40;;
45905;SDS011;31619;49.008;12.106;2023-04-19T14:11:07;5.93;;;5.32;;
45905;SDS011;31619;49.008;12.106;2023-04-19T14:13:32;5.40;;;5.00;;
45905;SDS011;31619;49.008;12.106;2023-04-19T14:15:58;5.43;;;4.93;;
45905;SDS011;31619;49.008;12.106;2023-04-19T14:18:24;4.65;;;4.32;;
45905;SDS011;31619;49.008;12.106;2023-04-19T14:20:49;5.20;;;4.80;;
45905;SDS011;31619;49.008;12.106;2023-04-19T14:23:15;5.18;;;4.78;;
45905;SDS011;31619;49.008;12.106;2023-04-19T14:25:41;5.32;;;4.80;;